createdAt,value
2019-03-12T20:05:57.388Z,10.70
2019-03-12T20:08:26.263Z,10.60
2019-03-12T20:11:10.155Z,10.60
2019-03-12T20:13:48.437Z,10.60
2019-03-12T20:16:32.087Z,10.60
2019-03-12T20:19:33.288Z,10.50
2019-03-12T20:22:11.604Z,10.60
2019-03-12T20:25:17.021Z,10.50
2019-03-12T20:28:14.942Z,10.60
2019-03-12T20:31:04.950Z,10.50
2019-03-12T20:34:00.556Z,10.50
2019-03-12T20:36:52.139Z,10.50
2019-03-12T20:39:41.293Z,10.70
2019-03-12T20:42:46.403Z,10.60
2019-03-12T20:45:52.865Z,10.80
2019-03-12T20:49:10.469Z,10.60
2019-03-12T20:51:48.906Z,10.50
2019-03-12T20:54:26.600Z,10.60
2019-03-12T20:57:25.975Z,10.80
2019-03-12T21:00:27.321Z,10.90
2019-03-12T21:03:18.612Z,11.10
2019-03-12T21:06:11.846Z,11.20
2019-03-12T21:09:17.229Z,11.20
2019-03-12T21:12:24.154Z,11.30
2019-03-12T21:15:11.193Z,11.30
2019-03-12T21:17:52.323Z,11.30
2019-03-12T21:20:30.535Z,11.10
2019-03-12T21:23:14.122Z,10.80
2019-03-12T21:25:55.384Z,10.50
2019-03-12T21:28:27.441Z,10.20
2019-03-12T21:30:56.384Z,9.90
2019-03-12T21:33:25.319Z,9.60
2019-03-12T21:35:54.302Z,9.40
2019-03-12T21:38:23.329Z,9.10
2019-03-12T21:40:52.453Z,9.00
2019-03-12T21:43:21.455Z,8.80
2019-03-12T21:45:50.411Z,8.80
2019-03-12T21:48:19.476Z,8.60
2019-03-12T21:50:48.398Z,8.40
2019-03-12T21:53:17.293Z,8.40
2019-03-12T21:55:46.321Z,8.20
2019-03-12T21:58:15.084Z,8.10
2019-03-12T22:00:43.983Z,8.10
2019-03-12T22:03:16.092Z,8.00
2019-03-12T22:05:43.542Z,8.00
2019-03-12T22:08:12.548Z,7.90
2019-03-12T22:10:41.457Z,7.80
2019-03-12T22:13:10.404Z,7.80
2019-03-12T22:15:39.298Z,7.80
2019-03-12T22:18:08.385Z,7.80
2019-03-12T22:20:37.602Z,7.80
2019-03-12T22:23:08.070Z,7.80
2019-03-12T22:25:37.100Z,7.80
2019-03-12T22:28:05.990Z,7.90
2019-03-12T22:30:35.034Z,7.80
2019-03-12T22:33:04.002Z,7.90
2019-03-12T22:35:32.986Z,7.90
2019-03-12T22:38:01.776Z,7.90
2019-03-12T22:40:30.724Z,7.90
2019-03-12T22:42:59.515Z,8.00
2019-03-12T22:45:28.349Z,7.90
2019-03-12T22:47:57.204Z,8.00
2019-03-12T22:50:26.132Z,7.90
2019-03-12T22:52:54.985Z,7.90
2019-03-12T22:55:23.890Z,7.90
2019-03-12T22:57:52.924Z,8.00
2019-03-12T23:00:21.907Z,7.90
2019-03-12T23:02:50.873Z,7.90
2019-03-12T23:05:19.811Z,8.00
2019-03-12T23:07:48.581Z,8.00
2019-03-12T23:10:17.476Z,7.90
2019-03-12T23:12:46.405Z,7.90
2019-03-12T23:15:21.264Z,7.90
2019-03-12T23:17:50.244Z,8.00
2019-03-12T23:20:22.369Z,7.90
2019-03-12T23:22:52.326Z,8.00
2019-03-12T23:25:21.394Z,8.00
2019-03-12T23:27:50.549Z,8.10
2019-03-12T23:30:20.552Z,8.10
2019-03-12T23:32:49.668Z,8.10
2019-03-12T23:35:18.667Z,8.10
2019-03-12T23:37:47.599Z,8.00
2019-03-12T23:40:17.305Z,8.10
2019-03-12T23:42:46.297Z,7.20
2019-03-12T23:45:16.185Z,8.00
2019-03-12T23:47:45.315Z,8.10
2019-03-12T23:50:17.756Z,8.10
2019-03-12T23:52:46.792Z,8.20
2019-03-12T23:55:16.654Z,8.10
2019-03-12T23:57:45.779Z,8.20
